Time;durP1;ratioP1;P1;durP2;ratioP2;P2;SDS_P1;SDS_P2;PMS_P1;PMS_P2;Temp;Humidity;BMP_temperature;BMP_pressure;BME280_temperature;BME280_humidity;BME280_pressure;Samples;Min_cycle;Max_cycle;Signal;HPM_P1;HPM_P2
2022/09/17 00:00:48;;;;;;;8.82;7.38;;;;;;;;;;5054289;28;20091;-69
2022/09/17 00:03:13;;;;;;;9.75;6.50;;;;;;;;;;5053823;28;20025;-69
2022/09/17 00:05:39;;;;;;;7.43;6.45;;;;;;;;;;5035283;28;20025;-64
2022/09/17 00:08:05;;;;;;;10.73;7.70;;;;;;;;;;5053730;28;20025;-64
2022/09/17 00:10:32;;;;;;;8.13;6.47;;;;;;;;;;5054074;28;20041;-64
2022/09/17 00:12:57;;;;;;;7.75;6.30;;;;;;;;;;5053547;28;20029;-63
2022/09/17 00:15:22;;;;;;;8.02;6.22;;;;;;;;;;5053826;28;20028;-64
2022/09/17 00:17:52;;;;;;;10.05;6.63;;;;;;;;;;5054131;28;20017;-64
2022/09/17 00:20:18;;;;;;;6.55;5.97;;;;;;;;;;5053813;28;20107;-64
2022/09/17 00:22:43;;;;;;;6.22;5.60;;;;;;;;;;5054000;28;20025;-64
2022/09/17 00:25:19;;;;;;;8.75;6.13;;;;;;;;;;5054244;28;20039;-64
2022/09/17 00:28:35;;;;;;;5.97;5.47;;;;;;;;;;5053890;28;20024;-69
2022/09/17 00:32:07;;;;;;;7.38;5.50;;;;;;;;;;4991981;28;20485;-69
2022/09/17 00:34:51;;;;;;;7.43;6.07;;;;;;;;;;4994006;28;20038;-69
2022/09/17 00:37:19;;;;;;;8.80;7.18;;;;;;;;;;5030434;28;20032;-69
2022/09/17 00:39:44;;;;;;;10.27;8.10;;;;;;;;;;5014656;28;20064;-69
2022/09/17 00:42:14;;;;;;;7.40;5.60;;;;;;;;;;5031332;28;20647;-69
2022/09/17 00:44:41;;;;;;;6.95;5.97;;;;;;;;;;5030020;28;20056;-69
2022/09/17 00:47:14;;;;;;;15.38;7.88;;;;;;;;;;5013140;28;20030;-69
2022/09/17 00:49:40;;;;;;;16.90;8.27;;;;;;;;;;5030923;28;20037;-65
2022/09/17 00:52:08;;;;;;;9.18;5.78;;;;;;;;;;5014599;28;20108;-65
2022/09/17 00:54:35;;;;;;;10.82;7.05;;;;;;;;;;5031606;28;20033;-64
2022/09/17 00:57:01;;;;;;;13.82;9.07;;;;;;;;;;5018935;28;20021;-64
2022/09/17 00:59:26;;;;;;;6.50;5.90;;;;;;;;;;5018717;28;20366;-69
2022/09/17 01:01:52;;;;;;;6.05;5.45;;;;;;;;;;5035009;28;20529;-69
2022/09/17 01:04:18;;;;;;;9.40;6.22;;;;;;;;;;5033711;28;20120;-69
2022/09/17 01:07:04;;;;;;;9.85;6.68;;;;;;;;;;5017199;28;20088;-70
2022/09/17 01:09:45;;;;;;;9.00;5.85;;;;;;;;;;5013463;28;20103;-70
2022/09/17 01:12:28;;;;;;;5.68;5.10;;;;;;;;;;5033505;28;20517;-70
2022/09/17 01:15:06;;;;;;;8.95;5.50;;;;;;;;;;5033674;28;20037;-70
2022/09/17 01:17:49;;;;;;;9.30;6.15;;;;;;;;;;5019276;28;20041;-70
2022/09/17 01:20:17;;;;;;;13.80;8.13;;;;;;;;;;5034970;28;20144;-70
2022/09/17 01:22:45;;;;;;;17.08;9.20;;;;;;;;;;5034593;28;20179;-65
2022/09/17 01:25:29;;;;;;;15.40;8.77;;;;;;;;;;5034907;28;20045;-65
2022/09/17 01:28:04;;;;;;;19.17;9.82;;;;;;;;;;5034749;28;20401;-63
2022/09/17 01:30:32;;;;;;;20.10;9.63;;;;;;;;;;5034492;28;20041;-63
2022/09/17 01:33:20;;;;;;;9.73;6.93;;;;;;;;;;5034679;28;20025;-63
2022/09/17 01:35:45;;;;;;;8.32;6.90;;;;;;;;;;5035159;28;20429;-65
2022/09/17 01:38:16;;;;;;;24.35;13.70;;;;;;;;;;5034738;28;20041;-64
2022/09/17 01:40:48;;;;;;;79.68;33.53;;;;;;;;;;5029955;28;20040;-64
2022/09/17 01:43:13;;;;;;;36.90;17.13;;;;;;;;;;5038431;28;20032;-65
2022/09/17 01:45:46;;;;;;;25.13;12.95;;;;;;;;;;5056500;28;20045;-65
2022/09/17 01:48:16;;;;;;;10.82;7.60;;;;;;;;;;5072179;28;20036;-65
2022/09/17 01:50:54;;;;;;;34.85;13.90;;;;;;;;;;5056310;28;20033;-65
2022/09/17 01:53:22;;;;;;;13.57;7.95;;;;;;;;;;5056270;28;20060;-64
2022/09/17 01:55:49;;;;;;;62.90;24.30;;;;;;;;;;5056210;28;20017;-65
2022/09/17 01:58:22;;;;;;;9.73;7.78;;;;;;;;;;5056631;28;20055;-64
2022/09/17 02:00:51;;;;;;;35.22;14.98;;;;;;;;;;5056143;28;20024;-64
2022/09/17 02:03:33;;;;;;;22.98;11.40;;;;;;;;;;5056084;28;20442;-67
2022/09/17 02:06:12;;;;;;;18.30;10.00;;;;;;;;;;5055655;28;20103;-63
2022/09/17 02:08:40;;;;;;;13.45;8.13;;;;;;;;;;5055859;28;20515;-63
2022/09/17 02:11:12;;;;;;;14.80;10.15;;;;;;;;;;5056272;28;20025;-63
2022/09/17 02:13:41;;;;;;;20.05;13.10;;;;;;;;;;5056052;28;20041;-64
2022/09/17 02:16:32;;;;;;;17.55;12.45;;;;;;;;;;5056105;28;20017;-64
2022/09/17 02:19:03;;;;;;;11.32;7.88;;;;;;;;;;5052838;28;20124;-64
2022/09/17 02:21:28;;;;;;;;;;;;;;;;;;5056446;28;20484;-64
2022/09/17 02:24:06;;;;;;;11.20;9.00;;;;;;;;;;5038090;28;19909;-64
2022/09/17 02:26:33;;;;;;;12.65;8.57;;;;;;;;;;5055773;28;20260;-63
2022/09/17 02:29:04;;;;;;;14.23;8.50;;;;;;;;;;5055675;28;20499;-63
2022/09/17 02:31:30;;;;;;;12.73;9.25;;;;;;;;;;5055730;28;20091;-64
2022/09/17 02:33:59;;;;;;;14.20;8.77;;;;;;;;;;5038114;28;20411;-64
2022/09/17 02:36:24;;;;;;;11.73;9.13;;;;;;;;;;5055726;28;20067;-64
2022/09/17 02:38:56;;;;;;;10.98;8.35;;;;;;;;;;5055421;28;20029;-64
2022/09/17 02:41:24;;;;;;;10.55;8.80;;;;;;;;;;5055209;28;20495;-65
2022/09/17 02:44:08;;;;;;;9.40;7.75;;;;;;;;;;5054974;28;20361;-65
2022/09/17 02:46:33;;;;;;;9.90;7.88;;;;;;;;;;5055457;28;20021;-65
2022/09/17 02:49:01;;;;;;;9.70;7.00;;;;;;;;;;5037796;28;20179;-65
2022/09/17 02:51:39;;;;;;;11.50;7.18;;;;;;;;;;5037940;28;20116;-65
2022/09/17 02:54:09;;;;;;;9.18;6.63;;;;;;;;;;5055724;28;20032;-65
2022/09/17 02:56:44;;;;;;;11.70;8.65;;;;;;;;;;5055274;28;20063;-64
2022/09/17 02:59:13;;;;;;;15.68;10.43;;;;;;;;;;5055244;28;20033;-64
2022/09/17 03:01:43;;;;;;;14.05;11.07;;;;;;;;;;5055293;28;20021;-65
2022/09/17 03:04:11;;;;;;;14.80;9.63;;;;;;;;;;5053548;28;20028;-65
2022/09/17 03:06:37;;;;;;;14.65;9.93;;;;;;;;;;5055060;28;20027;-65
2022/09/17 03:09:02;;;;;;;15.07;9.75;;;;;;;;;;5055225;28;20037;-65
2022/09/17 03:11:28;;;;;;;11.45;9.27;;;;;;;;;;5070478;28;20031;-64
2022/09/17 03:13:53;;;;;;;12.65;9.80;;;;;;;;;;5055028;28;20082;-64
2022/09/17 03:16:19;;;;;;;19.20;11.43;;;;;;;;;;5037246;28;20074;-64
2022/09/17 03:18:44;;;;;;;14.10;10.00;;;;;;;;;;5054417;28;20075;-64
2022/09/17 03:21:11;;;;;;;12.07;9.73;;;;;;;;;;5054716;28;20020;-65
2022/09/17 03:23:36;;;;;;;12.02;8.98;;;;;;;;;;5036720;28;20021;-65
2022/09/17 03:26:02;;;;;;;9.68;8.07;;;;;;;;;;5037079;28;20082;-65
2022/09/17 03:28:27;;;;;;;9.48;7.88;;;;;;;;;;5037349;28;20473;-64
2022/09/17 03:30:53;;;;;;;9.40;7.88;;;;;;;;;;5055168;28;20524;-64
2022/09/17 03:33:19;;;;;;;9.00;7.35;;;;;;;;;;5054558;28;20027;-64
2022/09/17 03:35:44;;;;;;;13.25;7.57;;;;;;;;;;5036512;28;20449;-64
2022/09/17 03:38:10;;;;;;;16.30;8.52;;;;;;;;;;5036289;28;20033;-64
2022/09/17 03:40:35;;;;;;;14.82;9.35;;;;;;;;;;5054219;28;20024;-64
2022/09/17 03:43:01;;;;;;;21.23;10.80;;;;;;;;;;5054480;28;20098;-63
2022/09/17 03:45:26;;;;;;;20.88;10.70;;;;;;;;;;5053968;28;20047;-68
2022/09/17 03:47:51;;;;;;;20.27;10.13;;;;;;;;;;5054072;28;20111;-68
2022/09/17 03:50:17;;;;;;;15.68;8.35;;;;;;;;;;5054728;28;20526;-69
2022/09/17 03:52:42;;;;;;;12.73;7.38;;;;;;;;;;5053829;28;20090;-70
2022/09/17 03:55:08;;;;;;;22.77;11.10;;;;;;;;;;5054465;28;20032;-70
2022/09/17 03:57:33;;;;;;;25.05;11.90;;;;;;;;;;5054045;28;20029;-69
2022/09/17 03:59:59;;;;;;;32.63;16.40;;;;;;;;;;5053877;28;20009;-73
2022/09/17 04:02:24;;;;;;;26.40;15.30;;;;;;;;;;5055025;28;20024;-69
2022/09/17 04:04:49;;;;;;;26.67;16.35;;;;;;;;;;5056273;28;20464;-69
2022/09/17 04:07:15;;;;;;;20.23;11.45;;;;;;;;;;5053702;28;20025;-70
2022/09/17 04:09:40;;;;;;;19.20;11.73;;;;;;;;;;5052657;28;20464;-69
2022/09/17 04:12:05;;;;;;;20.10;12.13;;;;;;;;;;5053145;28;20122;-71
2022/09/17 04:14:31;;;;;;;24.80;13.02;;;;;;;;;;5035742;28;20017;-65
2022/09/17 04:16:57;;;;;;;25.60;14.23;;;;;;;;;;5035880;28;20432;-65
2022/09/17 04:19:22;;;;;;;26.23;13.18;;;;;;;;;;5053953;28;20017;-65
2022/09/17 04:21:48;;;;;;;21.77;12.93;;;;;;;;;;5054001;28;20025;-65
2022/09/17 04:24:13;;;;;;;25.15;13.00;;;;;;;;;;5053686;28;20468;-65
2022/09/17 04:26:38;;;;;;;23.50;12.80;;;;;;;;;;5054042;28;20032;-65
2022/09/17 04:29:04;;;;;;;22.33;13.25;;;;;;;;;;5053153;28;20075;-65
2022/09/17 04:31:29;;;;;;;23.65;13.55;;;;;;;;;;5053480;28;20485;-65
2022/09/17 04:33:55;;;;;;;25.30;14.43;;;;;;;;;;5053487;28;20025;-65
2022/09/17 04:36:20;;;;;;;23.80;14.10;;;;;;;;;;5053548;28;20074;-65
2022/09/17 04:38:49;;;;;;;21.95;12.75;;;;;;;;;;5053616;28;20024;-66
2022/09/17 04:41:14;;;;;;;18.02;12.10;;;;;;;;;;5035506;28;20021;-65
2022/09/17 04:43:39;;;;;;;17.13;11.90;;;;;;;;;;5035573;28;20066;-65
2022/09/17 04:46:05;;;;;;;18.30;11.75;;;;;;;;;;5053114;28;20045;-65
2022/09/17 04:48:30;;;;;;;14.48;10.65;;;;;;;;;;5053806;28;20420;-66
2022/09/17 04:50:56;;;;;;;14.88;10.32;;;;;;;;;;5053463;28;20049;-65
2022/09/17 04:53:21;;;;;;;11.85;9.05;;;;;;;;;;5053076;28;20465;-65
2022/09/17 04:55:46;;;;;;;12.55;9.65;;;;;;;;;;5053541;28;20126;-65
2022/09/17 04:58:12;;;;;;;11.18;9.15;;;;;;;;;;5053169;28;20481;-65
2022/09/17 05:00:38;;;;;;;12.68;9.73;;;;;;;;;;5053184;28;20056;-65
2022/09/17 05:03:03;;;;;;;13.32;10.00;;;;;;;;;;5018863;28;20076;-65
2022/09/17 05:05:28;;;;;;;12.98;8.70;;;;;;;;;;5053332;28;20091;-65
2022/09/17 05:07:54;;;;;;;12.75;9.30;;;;;;;;;;5053359;28;20029;-65
2022/09/17 05:10:20;;;;;;;11.88;9.35;;;;;;;;;;5053310;28;20091;-66
2022/09/17 05:12:46;;;;;;;13.40;9.85;;;;;;;;;;5053206;28;20028;-65
2022/09/17 05:15:12;;;;;;;15.43;10.02;;;;;;;;;;5052613;28;20074;-65
2022/09/17 05:17:37;;;;;;;14.45;10.38;;;;;;;;;;5052693;28;20100;-65
2022/09/17 05:20:03;;;;;;;13.30;10.57;;;;;;;;;;5052221;28;20033;-64
2022/09/17 05:22:28;;;;;;;13.05;10.27;;;;;;;;;;5052694;28;20063;-66
2022/09/17 05:24:54;;;;;;;15.23;10.40;;;;;;;;;;5034911;28;20044;-65
2022/09/17 05:27:19;;;;;;;17.95;9.98;;;;;;;;;;5052590;28;20024;-66
2022/09/17 05:29:44;;;;;;;22.60;11.27;;;;;;;;;;5034628;28;20018;-66
2022/09/17 05:32:10;;;;;;;24.77;12.32;;;;;;;;;;5051838;28;20017;-66
2022/09/17 05:34:35;;;;;;;36.20;15.95;;;;;;;;;;5051127;28;20108;-66
2022/09/17 05:37:00;;;;;;;41.75;19.10;;;;;;;;;;5051385;28;20457;-66
2022/09/17 05:39:26;;;;;;;28.02;14.60;;;;;;;;;;5052620;28;20074;-65
2022/09/17 05:41:52;;;;;;;23.38;13.63;;;;;;;;;;5054670;28;20373;-68
2022/09/17 05:44:18;;;;;;;21.40;13.35;;;;;;;;;;5056032;28;20045;-68
2022/09/17 05:46:44;;;;;;;19.77;11.68;;;;;;;;;;5054479;28;20021;-68
2022/09/17 05:49:09;;;;;;;13.07;9.85;;;;;;;;;;5055457;28;20117;-67
2022/09/17 05:51:35;;;;;;;10.93;9.48;;;;;;;;;;5037166;28;20052;-68
2022/09/17 05:54:00;;;;;;;9.63;8.40;;;;;;;;;;5055111;28;20025;-68
2022/09/17 05:56:25;;;;;;;9.90;8.52;;;;;;;;;;5037156;28;20013;-68
2022/09/17 05:58:54;;;;;;;11.55;9.32;;;;;;;;;;5054712;28;20476;-69
2022/09/17 06:01:19;;;;;;;10.73;8.45;;;;;;;;;;5070337;28;20434;-69
2022/09/17 06:03:44;;;;;;;24.40;9.93;;;;;;;;;;5054905;28;20112;-68
2022/09/17 06:06:10;;;;;;;21.92;9.68;;;;;;;;;;5036956;28;20021;-69
2022/09/17 06:08:35;;;;;;;53.38;11.70;;;;;;;;;;5054771;28;20116;-68
2022/09/17 06:11:04;;;;;;;11.15;7.55;;;;;;;;;;5054724;28;20021;-68
2022/09/17 06:13:30;;;;;;;11.27;7.63;;;;;;;;;;5036736;28;20099;-68
2022/09/17 06:15:55;;;;;;;16.58;7.45;;;;;;;;;;5036760;28;20017;-67
2022/09/17 06:18:20;;;;;;;9.93;8.07;;;;;;;;;;5054314;28;20047;-67
2022/09/17 06:20:53;;;;;;;7.35;6.47;;;;;;;;;;5054566;28;20454;-67
2022/09/17 06:23:18;;;;;;;8.43;7.10;;;;;;;;;;5054471;28;20024;-68
2022/09/17 06:25:48;;;;;;;8.27;6.25;;;;;;;;;;5054452;28;20092;-69
2022/09/17 06:28:14;;;;;;;8.95;6.18;;;;;;;;;;5054402;28;20052;-68
2022/09/17 06:30:40;;;;;;;9.57;6.70;;;;;;;;;;5054324;28;20466;-68
2022/09/17 06:33:05;;;;;;;6.72;6.03;;;;;;;;;;5053996;28;20035;-68
2022/09/17 06:35:30;;;;;;;7.25;5.82;;;;;;;;;;5036572;28;20017;-68
2022/09/17 06:37:56;;;;;;;8.38;5.25;;;;;;;;;;5054255;28;20532;-68
2022/09/17 06:40:22;;;;;;;6.85;5.55;;;;;;;;;;5053883;28;20021;-68
2022/09/17 06:42:47;;;;;;;5.90;5.30;;;;;;;;;;5036194;28;20037;-68
2022/09/17 06:45:13;;;;;;;6.10;4.40;;;;;;;;;;5053935;28;20057;-68
2022/09/17 06:47:38;;;;;;;6.57;5.30;;;;;;;;;;5054069;28;20396;-68
2022/09/17 06:50:04;;;;;;;5.70;5.28;;;;;;;;;;5036584;28;20065;-67
2022/09/17 06:52:29;;;;;;;5.55;4.55;;;;;;;;;;5054170;28;20029;-71
2022/09/17 06:54:55;;;;;;;5.68;4.47;;;;;;;;;;5054117;28;20104;-72
2022/09/17 06:57:20;;;;;;;5.43;4.75;;;;;;;;;;5053884;28;20040;-71
2022/09/17 06:59:45;;;;;;;4.75;4.35;;;;;;;;;;5036106;28;20017;-70
2022/09/17 07:02:11;;;;;;;5.75;4.60;;;;;;;;;;5053505;28;20037;-70
2022/09/17 07:04:36;;;;;;;5.28;4.32;;;;;;;;;;5053687;28;20053;-70
2022/09/17 07:07:04;;;;;;;6.80;4.78;;;;;;;;;;5035871;28;20106;-70
2022/09/17 07:09:29;;;;;;;5.70;4.90;;;;;;;;;;5069002;28;20021;-67
2022/09/17 07:11:54;;;;;;;7.40;4.55;;;;;;;;;;5035600;28;20037;-67
2022/09/17 07:14:20;;;;;;;5.30;4.68;;;;;;;;;;5053541;28;20028;-67
2022/09/17 07:16:45;;;;;;;6.82;5.40;;;;;;;;;;5053461;28;20389;-67
2022/09/17 07:19:11;;;;;;;7.30;5.25;;;;;;;;;;5053453;28;20025;-67
2022/09/17 07:21:37;;;;;;;7.38;6.22;;;;;;;;;;5053393;28;20021;-67
2022/09/17 07:24:02;;;;;;;8.43;6.05;;;;;;;;;;5053346;28;20404;-67
2022/09/17 07:26:28;;;;;;;8.65;5.75;;;;;;;;;;5053344;28;20025;-67
2022/09/17 07:28:53;;;;;;;6.93;5.50;;;;;;;;;;5053206;28;20476;-68
2022/09/17 07:31:18;;;;;;;4.57;4.18;;;;;;;;;;5052946;28;20024;-68
2022/09/17 07:33:44;;;;;;;5.25;4.63;;;;;;;;;;5035208;28;20025;-68
2022/09/17 07:36:10;;;;;;;4.75;4.10;;;;;;;;;;5052861;28;20050;-67
2022/09/17 07:38:35;;;;;;;5.38;3.70;;;;;;;;;;5053030;28;20013;-67
2022/09/17 07:41:03;;;;;;;5.47;4.18;;;;;;;;;;5035090;28;20036;-68
2022/09/17 07:43:29;;;;;;;4.35;3.95;;;;;;;;;;5053016;28;20017;-67
2022/09/17 07:45:58;;;;;;;4.35;3.90;;;;;;;;;;5068264;28;20056;-67
2022/09/17 07:48:24;;;;;;;5.53;3.97;;;;;;;;;;5068036;28;20603;-68
2022/09/17 07:50:50;;;;;;;3.92;3.60;;;;;;;;;;5052900;28;20056;-67
2022/09/17 07:53:15;;;;;;;5.07;3.38;;;;;;;;;;5018319;28;20480;-67
2022/09/17 07:55:41;;;;;;;3.80;3.25;;;;;;;;;;5052831;28;20036;-67
2022/09/17 07:58:07;;;;;;;5.03;3.30;;;;;;;;;;5052754;28;20017;-67
2022/09/17 08:00:32;;;;;;;4.30;2.67;;;;;;;;;;5052664;28;20025;-67
2022/09/17 08:02:58;;;;;;;3.38;2.85;;;;;;;;;;5034887;28;20021;-67
2022/09/17 08:05:24;;;;;;;4.13;2.75;;;;;;;;;;5051729;28;20048;-67
2022/09/17 08:07:53;;;;;;;14.48;3.05;;;;;;;;;;5052654;28;20375;-67
2022/09/17 08:10:20;;;;;;;4.97;2.88;;;;;;;;;;5052323;28;20028;-68
2022/09/17 08:12:49;;;;;;;3.15;2.40;;;;;;;;;;5052386;28;20064;-64
2022/09/17 08:15:15;;;;;;;3.55;2.33;;;;;;;;;;5052500;28;20028;-65
2022/09/17 08:17:47;;;;;;;3.20;2.58;;;;;;;;;;5052573;28;20461;-65
2022/09/17 08:20:13;;;;;;;2.90;2.20;;;;;;;;;;5052498;28;20033;-64
2022/09/17 08:22:38;;;;;;;2.53;2.13;;;;;;;;;;5067884;28;20104;-64
2022/09/17 08:25:04;;;;;;;3.55;1.77;;;;;;;;;;5052429;28;20192;-65
2022/09/17 08:27:30;;;;;;;2.35;2.13;;;;;;;;;;5052305;28;20021;-64
2022/09/17 08:30:01;;;;;;;3.90;2.60;;;;;;;;;;5067322;28;20431;-64
2022/09/17 08:32:28;;;;;;;2.92;2.05;;;;;;;;;;5052111;28;20021;-64
2022/09/17 08:35:00;;;;;;;3.85;2.50;;;;;;;;;;5034569;28;20392;-64
2022/09/17 08:37:29;;;;;;;3.28;2.13;;;;;;;;;;5053042;28;20017;-64
2022/09/17 08:40:02;;;;;;;1.92;1.83;;;;;;;;;;5052869;28;20036;-65
2022/09/17 08:42:40;;;;;;;5.43;2.17;;;;;;;;;;5053063;28;20037;-64
2022/09/17 08:45:19;;;;;;;2.55;1.70;;;;;;;;;;5034945;28;20432;-64
2022/09/17 08:47:54;;;;;;;2.75;1.50;;;;;;;;;;5050512;28;20495;-65
2022/09/17 08:50:31;;;;;;;70.63;9.05;;;;;;;;;;5052988;28;20082;-65
2022/09/17 08:53:13;;;;;;;3.60;1.70;;;;;;;;;;5067983;28;20044;-64
2022/09/17 08:55:45;;;;;;;1.60;1.50;;;;;;;;;;5052663;28;20029;-64
2022/09/17 08:58:20;;;;;;;2.05;1.80;;;;;;;;;;5053483;28;20029;-64
2022/09/17 09:01:06;;;;;;;3.50;1.80;;;;;;;;;;5052580;28;20060;-64
2022/09/17 09:03:48;;;;;;;1.45;1.33;;;;;;;;;;5052584;28;20072;-64
2022/09/17 09:06:21;;;;;;;2.15;1.30;;;;;;;;;;5052990;28;20119;-68
2022/09/17 09:08:50;;;;;;;2.35;1.35;;;;;;;;;;5052910;28;20025;-69
2022/09/17 09:11:26;;;;;;;1.52;1.30;;;;;;;;;;5052411;28;20033;-68
2022/09/17 09:14:00;;;;;;;2.10;1.60;;;;;;;;;;5052672;28;20044;-68
2022/09/17 09:16:32;;;;;;;2.00;1.50;;;;;;;;;;5054062;28;20035;-68
2022/09/17 09:19:16;;;;;;;3.33;1.75;;;;;;;;;;5056635;28;20028;-68
2022/09/17 09:22:03;;;;;;;2.92;1.35;;;;;;;;;;5055762;28;20044;-68
2022/09/17 09:24:38;;;;;;;1.70;1.38;;;;;;;;;;5037490;28;20041;-68
2022/09/17 09:27:17;;;;;;;2.75;1.35;;;;;;;;;;5055241;28;20028;-68
2022/09/17 09:29:55;;;;;;;1.58;1.20;;;;;;;;;;5054599;28;20099;-68
2022/09/17 09:32:33;;;;;;;1.25;1.15;;;;;;;;;;5054930;28;20446;-68
2022/09/17 09:35:17;;;;;;;1.67;1.38;;;;;;;;;;5056276;28;20029;-68
2022/09/17 09:38:12;;;;;;;1.15;1.08;;;;;;;;;;5038927;28;20116;-68
2022/09/17 09:41:04;;;;;;;2.78;1.45;;;;;;;;;;5037928;28;20033;-68
2022/09/17 09:43:52;;;;;;;1.55;1.30;;;;;;;;;;5033171;28;20068;-68
2022/09/17 09:46:31;;;;;;;2.10;1.27;;;;;;;;;;5055094;28;20041;-68
2022/09/17 09:49:27;;;;;;;1.45;1.35;;;;;;;;;;5055252;28;20484;-68
2022/09/17 09:52:13;;;;;;;1.55;1.33;;;;;;;;;;5056297;28;20511;-68
2022/09/17 09:54:57;;;;;;;1.75;1.20;;;;;;;;;;5039607;28;20045;-69
2022/09/17 09:57:31;;;;;;;1.65;1.52;;;;;;;;;;5056645;28;20029;-67
2022/09/17 10:00:25;;;;;;;2.90;1.48;;;;;;;;;;5056398;28;20029;-68
2022/09/17 10:03:11;;;;;;;1.58;1.48;;;;;;;;;;5056231;28;20112;-68
2022/09/17 10:05:57;;;;;;;1.50;1.40;;;;;;;;;;5056279;28;20116;-68
2022/09/17 10:08:31;;;;;;;2.22;1.50;;;;;;;;;;5056442;28;20033;-68
2022/09/17 10:10:56;;;;;;;2.47;1.50;;;;;;;;;;5037948;28;20013;-68
2022/09/17 10:13:29;;;;;;;3.58;1.70;;;;;;;;;;5038990;28;20389;-68
2022/09/17 10:16:13;;;;;;;4.88;1.48;;;;;;;;;;5055761;28;20040;-68
2022/09/17 10:18:50;;;;;;;2.65;1.60;;;;;;;;;;5055969;28;20036;-68
2022/09/17 10:21:28;;;;;;;1.88;1.60;;;;;;;;;;5055682;28;20024;-68
2022/09/17 10:24:01;;;;;;;2.05;1.40;;;;;;;;;;5055891;28;20384;-68
2022/09/17 10:26:35;;;;;;;1.83;1.48;;;;;;;;;;5037680;28;20028;-68
2022/09/17 10:29:17;;;;;;;2.25;1.70;;;;;;;;;;5054572;28;20064;-68
2022/09/17 10:31:51;;;;;;;2.25;1.70;;;;;;;;;;5055628;28;20144;-68
2022/09/17 10:34:32;;;;;;;2.45;1.55;;;;;;;;;;5069802;28;20053;-68
2022/09/17 10:37:04;;;;;;;2.10;1.85;;;;;;;;;;5037546;28;20036;-68
2022/09/17 10:39:43;;;;;;;2.70;1.45;;;;;;;;;;5054212;28;20025;-67
2022/09/17 10:42:18;;;;;;;2.90;1.50;;;;;;;;;;5054168;28;20033;-67
2022/09/17 10:44:53;;;;;;;2.08;1.42;;;;;;;;;;5053494;28;20122;-67
2022/09/17 10:47:30;;;;;;;2.60;1.20;;;;;;;;;;5036221;28;20033;-67
2022/09/17 10:50:00;;;;;;;2.17;1.63;;;;;;;;;;5054084;28;20436;-67
2022/09/17 10:52:36;;;;;;;2.20;2.00;;;;;;;;;;5035990;28;20033;-67
2022/09/17 10:55:14;;;;;;;2.33;1.83;;;;;;;;;;5054347;28;20040;-67
2022/09/17 10:57:58;;;;;;;4.57;1.73;;;;;;;;;;5070047;28;20028;-67
2022/09/17 11:00:25;;;;;;;2.03;1.92;;;;;;;;;;5054871;28;20365;-67
2022/09/17 11:02:53;;;;;;;2.33;1.80;;;;;;;;;;5054482;28;20028;-67
2022/09/17 11:05:37;;;;;;;1.55;1.45;;;;;;;;;;5054555;28;20021;-67
2022/09/17 11:08:03;;;;;;;1.45;1.35;;;;;;;;;;5054244;28;20029;-67
2022/09/17 11:10:30;;;;;;;1.90;1.70;;;;;;;;;;5054222;28;20393;-67
2022/09/17 11:12:58;;;;;;;4.55;1.58;;;;;;;;;;5054178;28;20124;-67
2022/09/17 11:15:23;;;;;;;18.88;2.97;;;;;;;;;;5054079;28;20051;-67
2022/09/17 11:17:49;;;;;;;1.83;1.35;;;;;;;;;;5054254;28;20052;-67
2022/09/17 11:20:26;;;;;;;2.47;1.42;;;;;;;;;;5053844;28;20145;-67
2022/09/17 11:22:59;;;;;;;1.77;1.30;;;;;;;;;;5054307;28;20457;-67
2022/09/17 11:25:44;;;;;;;4.20;2.35;;;;;;;;;;5054101;28;20040;-67
2022/09/17 11:28:19;;;;;;;2.00;1.63;;;;;;;;;;5069562;28;20067;-67
2022/09/17 11:30:52;;;;;;;3.67;2.00;;;;;;;;;;5036258;28;20067;-67
2022/09/17 11:33:35;;;;;;;2.20;1.90;;;;;;;;;;5053970;28;20483;-67
2022/09/17 11:36:07;;;;;;;1.98;1.80;;;;;;;;;;5036292;28;20028;-67
2022/09/17 11:38:42;;;;;;;2.10;1.90;;;;;;;;;;5053559;28;20067;-67
2022/09/17 11:41:22;;;;;;;3.28;2.88;;;;;;;;;;5053858;28;20032;-67
2022/09/17 11:44:02;;;;;;;1.73;1.63;;;;;;;;;;5053622;28;20111;-67
2022/09/17 11:46:48;;;;;;;2.30;2.10;;;;;;;;;;5068625;28;20079;-67
2022/09/17 11:49:31;;;;;;;2.53;1.95;;;;;;;;;;5053495;28;20124;-67
2022/09/17 11:52:10;;;;;;;1.95;1.85;;;;;;;;;;5053610;28;20116;-67
2022/09/17 11:54:38;;;;;;;2.13;1.90;;;;;;;;;;5053545;28;20031;-67
2022/09/17 11:57:08;;;;;;;3.33;2.25;;;;;;;;;;5053056;28;20029;-63
2022/09/17 11:59:36;;;;;;;1.83;1.73;;;;;;;;;;5053130;28;20025;-63
2022/09/17 12:02:13;;;;;;;2.63;1.80;;;;;;;;;;5053265;28;20511;-63
2022/09/17 12:04:45;;;;;;;3.50;1.60;;;;;;;;;;5035658;28;20032;-63
2022/09/17 12:07:29;;;;;;;2.15;1.70;;;;;;;;;;5035734;28;20029;-63
2022/09/17 12:10:13;;;;;;;2.85;1.92;;;;;;;;;;5053408;28;20473;-63
2022/09/17 12:12:42;;;;;;;1.92;1.80;;;;;;;;;;5053399;28;20032;-64
2022/09/17 12:15:16;;;;;;;2.00;1.90;;;;;;;;;;5053177;28;20476;-63
2022/09/17 12:17:45;;;;;;;5.15;1.90;;;;;;;;;;5068607;28;20037;-63
2022/09/17 12:20:34;;;;;;;2.13;2.03;;;;;;;;;;5053509;28;20021;-63
2022/09/17 12:23:01;;;;;;;1.85;1.75;;;;;;;;;;5047367;28;20079;-63
2022/09/17 12:25:29;;;;;;;3.10;2.03;;;;;;;;;;5053306;28;20013;-62
2022/09/17 12:27:59;;;;;;;1.90;1.80;;;;;;;;;;5034944;28;20040;-63
2022/09/17 12:30:31;;;;;;;2.60;1.88;;;;;;;;;;5054175;28;20445;-63
2022/09/17 12:32:59;;;;;;;2.25;1.77;;;;;;;;;;5054133;28;20099;-63
2022/09/17 12:35:34;;;;;;;1.38;1.27;;;;;;;;;;5053391;28;20021;-63
2022/09/17 12:38:18;;;;;;;2.75;2.10;;;;;;;;;;5053083;28;20033;-63
2022/09/17 12:40:47;;;;;;;2.13;1.92;;;;;;;;;;5068358;28;20556;-63
2022/09/17 12:43:28;;;;;;;1.83;1.63;;;;;;;;;;5052907;28;20029;-63
2022/09/17 12:46:12;;;;;;;1.63;1.52;;;;;;;;;;5035084;28;20075;-63
2022/09/17 12:48:56;;;;;;;2.17;1.95;;;;;;;;;;5053114;28;20485;-67
2022/09/17 12:51:36;;;;;;;2.47;1.88;;;;;;;;;;5036623;28;20044;-67
2022/09/17 12:54:12;;;;;;;2.15;1.95;;;;;;;;;;5039193;28;20037;-67
2022/09/17 12:56:48;;;;;;;2.33;2.08;;;;;;;;;;5056972;28;20013;-67
2022/09/17 12:59:19;;;;;;;2.10;1.90;;;;;;;;;;5056984;28;20043;-67
2022/09/17 13:01:51;;;;;;;2.05;1.95;;;;;;;;;;5056595;28;20119;-67
2022/09/17 13:04:35;;;;;;;2.15;1.95;;;;;;;;;;5056866;28;20100;-67
2022/09/17 13:07:00;;;;;;;2.33;2.17;;;;;;;;;;5072190;28;20410;-67
2022/09/17 13:09:28;;;;;;;2.90;2.67;;;;;;;;;;5056737;28;20029;-67
2022/09/17 13:12:09;;;;;;;2.67;2.22;;;;;;;;;;5056720;28;20302;-67
2022/09/17 13:14:40;;;;;;;2.38;2.28;;;;;;;;;;5056654;28;20021;-67
2022/09/17 13:17:09;;;;;;;3.47;2.35;;;;;;;;;;5038745;28;20407;-67
2022/09/17 13:19:59;;;;;;;2.65;2.45;;;;;;;;;;5038853;28;20021;-67
2022/09/17 13:22:42;;;;;;;2.55;2.35;;;;;;;;;;5056446;28;20456;-67
2022/09/17 13:25:08;;;;;;;2.50;2.22;;;;;;;;;;5056226;28;20028;-67
2022/09/17 13:27:37;;;;;;;3.75;2.47;;;;;;;;;;5056288;28;20021;-67
2022/09/17 13:30:06;;;;;;;2.53;2.33;;;;;;;;;;5056414;28;20041;-67
2022/09/17 13:32:31;;;;;;;5.25;2.50;;;;;;;;;;5056234;28;20040;-67
2022/09/17 13:35:17;;;;;;;2.88;2.05;;;;;;;;;;5056311;28;20071;-67
2022/09/17 13:37:43;;;;;;;2.00;1.90;;;;;;;;;;5055702;28;20064;-67
2022/09/17 13:40:18;;;;;;;2.10;1.77;;;;;;;;;;5056075;28;20024;-67
2022/09/17 13:42:45;;;;;;;2.08;1.98;;;;;;;;;;5056277;28;20033;-67
2022/09/17 13:45:15;;;;;;;2.20;1.92;;;;;;;;;;5055875;28;20481;-67
2022/09/17 13:48:10;;;;;;;2.33;2.13;;;;;;;;;;5056082;28;20060;-67
2022/09/17 13:50:39;;;;;;;2.05;1.85;;;;;;;;;;5046841;28;20045;-67
2022/09/17 13:53:11;;;;;;;2.63;1.77;;;;;;;;;;5070516;28;20037;-67
2022/09/17 13:55:42;;;;;;;3.05;2.10;;;;;;;;;;5055035;28;20025;-67
2022/09/17 13:58:11;;;;;;;2.22;1.90;;;;;;;;;;5055039;28;20029;-67
2022/09/17 14:00:51;;;;;;;2.08;1.88;;;;;;;;;;5054969;28;20048;-67
2022/09/17 14:03:16;;;;;;;;;;;;;;;;;;5037761;28;20036;-67
2022/09/17 14:05:42;;;;;;;3.43;2.67;;;;;;;;;;5037181;28;19909;-67
2022/09/17 14:08:12;;;;;;;3.78;2.83;;;;;;;;;;5054852;28;20040;-69
2022/09/17 14:10:41;;;;;;;2.50;2.30;;;;;;;;;;5054851;28;20064;-69
2022/09/17 14:13:40;;;;;;;3.03;2.45;;;;;;;;;;5054583;28;20021;-70
2022/09/17 14:16:22;;;;;;;2.33;2.22;;;;;;;;;;5070860;28;20025;-69
2022/09/17 14:18:57;;;;;;;1.55;1.42;;;;;;;;;;5055038;28;20071;-70
2022/09/17 14:21:25;;;;;;;1.80;1.60;;;;;;;;;;5055404;28;20045;-67
2022/09/17 14:23:54;;;;;;;1.92;1.83;;;;;;;;;;5055224;28;20024;-70
2022/09/17 14:26:36;;;;;;;5.13;1.90;;;;;;;;;;5055411;28;20366;-70
2022/09/17 14:29:21;;;;;;;2.28;2.08;;;;;;;;;;5055051;28;20397;-71
2022/09/17 14:31:47;;;;;;;2.63;1.85;;;;;;;;;;5055019;28;20037;-70
2022/09/17 14:34:18;;;;;;;1.98;1.80;;;;;;;;;;5054777;28;20024;-71
2022/09/17 14:36:44;;;;;;;2.38;2.17;;;;;;;;;;5054621;28;20040;-71
2022/09/17 14:39:14;;;;;;;2.30;1.98;;;;;;;;;;5054785;28;20056;-70
2022/09/17 14:41:41;;;;;;;3.60;2.00;;;;;;;;;;5054839;28;20021;-72
2022/09/17 14:44:31;;;;;;;2.10;1.90;;;;;;;;;;5054833;28;20021;-72
2022/09/17 14:47:07;;;;;;;2.55;2.35;;;;;;;;;;5053390;28;20037;-70
2022/09/17 14:49:33;;;;;;;2.58;2.38;;;;;;;;;;5067182;28;20033;-70
2022/09/17 14:52:00;;;;;;;2.63;2.20;;;;;;;;;;5034031;28;20495;-70
2022/09/17 14:54:26;;;;;;;2.22;2.03;;;;;;;;;;5052047;28;20037;-72
2022/09/17 14:56:59;;;;;;;2.70;2.15;;;;;;;;;;5051899;28;20124;-63
2022/09/17 14:59:34;;;;;;;2.50;1.88;;;;;;;;;;5052229;28;20526;-71
2022/09/17 15:01:59;;;;;;;3.15;2.40;;;;;;;;;;5051730;28;20033;-70